CDT,Max TemperatureF,Mean TemperatureF,Min TemperatureF,Max Dew PointF,MeanDew PointF,Min DewpointF,Max Humidity, Mean Humidity, Min Humidity, Max Sea Level PressureIn, Mean Sea Level PressureIn, Min Sea Level PressureIn, Max VisibilityMiles, Mean VisibilityMiles, Min VisibilityMiles, Max Wind SpeedMPH, Mean Wind SpeedMPH, Max Gust SpeedMPH,PrecipitationIn, CloudCover, Events, WindDirDegrees
2012-10-1,71,65,59,50,46,43,68,50,35,29.82,29.78,29.74,10,10,10,14,7,22,0.00,0,,360
2012-10-2,75,62,48,48,46,41,76,54,38,29.93,29.87,29.83,10,9,5,8,3,,0.00,0,,322
2012-10-3,77,65,55,52,49,46,77,63,36,30.05,29.99,29.95,10,9,5,6,1,,0.00,0,,154
2012-10-4,80,68,55,54,50,46,72,57,37,30.21,30.15,30.12,10,7,3,7,3,,0.00,0,,207
2012-10-5,59,57,53,48,47,46,77,73,67,30.15,30.12,30.08,10,10,8,8,5,,0.00,6,Thunderstorm,3
2012-10-6,,,,,,,,,,,,,,,,,,,,,,
2012-10-7,,,,,,,,,,,,,,,,,,,,,,
2012-10-8,,,,,,,,,,,,,,,,,,,,,,
2012-10-9,,,,,,,,,,,,,,,,,,,,,,
2012-10-10,,,,,,,,,,,,,,,,,,,,,,
2012-10-11,60,56,53,48,47,45,82,74,63,30.21,30.17,30.14,10,10,4,7,5,,0.00,5,,87
2012-10-12,57,55,53,54,51,48,88,83,77,30.31,30.22,30.16,10,7,1,10,2,16,1.61,7,Thunderstorm,87
2012-10-13,75,65,55,63,58,52,88,74,61,30.21,30.04,29.84,10,7,0,14,6,23,0.00,6,,155
2012-10-14,73,66,55,63,52,43,82,61,43,30.05,29.90,29.74,10,10,3,20,10,28,0.64,2,Thunderstorm,245
2012-10-15,80,62,44,52,46,39,82,58,28,30.08,30.00,29.93,10,10,10,13,1,18,0.00,0,,280
2012-10-16,80,64,48,52,44,39,87,54,23,29.95,29.81,29.69,10,10,9,16,4,26,0.00,0,,178
2012-10-17,71,63,55,57,52,43,77,67,60,29.71,29.59,29.47,10,10,9,15,6,22,0.10,4,Thunderstorm,203
2012-10-18,60,53,46,41,34,25,71,50,27,29.82,29.75,29.71,10,10,10,26,8,34,0.00,0,,258
2012-10-19,57,50,42,37,34,28,76,54,36,29.87,29.78,29.71,10,10,9,22,9,30,0.00,3,,291
2012-10-20,66,50,35,43,36,30,87,69,42,29.93,29.86,29.80,10,9,0,9,2,,0.00,0,,128
2012-10-21,80,66,53,63,53,43,72,62,48,29.92,29.89,29.86,10,10,10,12,3,17,0.00,1,,168
2012-10-22,82,74,66,63,59,54,73,60,48,29.98,29.95,29.90,10,10,9,14,6,21,0.00,2,,170
2012-10-23,84,74,64,57,53,50,68,51,32,29.97,29.94,29.89,10,10,8,14,5,23,0.00,2,,173
2012-10-24,82,72,62,61,58,55,77,59,45,30.01,29.96,29.89,10,10,10,13,5,20,0.00,0,,160
2012-10-25,80,63,46,61,53,37,82,65,45,30.15,29.92,29.83,10,10,7,24,9,33,0.39,5,,215
2012-10-26,53,48,42,37,30,25,71,53,35,30.30,30.24,30.15,10,10,6,14,10,22,0.00,4,,358
2012-10-27,55,45,35,27,25,23,65,48,31,30.32,30.24,30.16,10,10,10,14,6,20,0.00,0,,347
2012-10-28,55,44,32,28,26,23,75,52,30,30.28,30.23,30.18,10,10,10,10,5,17,0.00,0,,338
2012-10-29,55,42,28,30,26,23,80,61,31,30.34,30.24,30.12,10,10,10,6,1,,0.00,0,,24
2012-10-30,60,45,30,36,30,25,81,60,31,30.12,30.02,29.94,10,10,4,6,1,,0.00,1,,77
2012-10-31,66,52,37,36,33,28,81,52,31,30.04,29.99,29.96,10,10,8,12,2,,0.00,1,,321